createdAt,value
2022-12-31T00:01:07.786Z,2.03
2022-12-31T00:04:09.666Z,1.60
2022-12-31T00:07:14.533Z,3.17
2022-12-31T00:10:16.591Z,2.23
2022-12-31T00:13:18.645Z,1.67
2022-12-31T00:16:23.575Z,3.43
2022-12-31T00:19:25.542Z,1.50
2022-12-31T00:22:27.341Z,2.50
2022-12-31T00:25:29.280Z,2.03
2022-12-31T00:28:31.315Z,3.43
2022-12-31T00:31:36.107Z,2.50
2022-12-31T00:34:38.049Z,2.23
2022-12-31T00:37:39.991Z,1.30
2022-12-31T00:40:41.856Z,3.03
2022-12-31T00:43:44.077Z,1.37
2022-12-31T00:49:46.596Z,1.67
2022-12-31T00:52:48.507Z,1.57
2022-12-31T00:55:50.944Z,1.00
2022-12-31T00:58:53.019Z,1.83
2022-12-31T01:01:55.089Z,0.90
2022-12-31T01:04:57.119Z,1.93
2022-12-31T01:07:59.098Z,3.23
2022-12-31T01:11:19.633Z,1.77
2022-12-31T01:14:22.526Z,2.03
2022-12-31T01:17:24.379Z,2.37
2022-12-31T01:20:27.093Z,1.50
2022-12-31T01:23:29.436Z,1.87
2022-12-31T01:26:31.467Z,3.20
2022-12-31T01:29:34.153Z,1.37
2022-12-31T01:32:36.021Z,1.23
2022-12-31T01:35:38.753Z,1.23
2022-12-31T01:38:41.186Z,1.10
2022-12-31T01:41:46.093Z,2.97
2022-12-31T01:44:54.760Z,1.90
2022-12-31T01:47:59.234Z,1.40
2022-12-31T01:51:01.219Z,1.87
2022-12-31T01:54:07.305Z,1.87
2022-12-31T01:57:10.687Z,1.37
2022-12-31T02:00:13.062Z,2.50
2022-12-31T02:03:15.156Z,1.53
2022-12-31T02:06:35.848Z,1.60
2022-12-31T02:09:39.423Z,1.10
2022-12-31T02:12:41.996Z,2.23
2022-12-31T02:16:10.782Z,2.20
2022-12-31T02:19:39.480Z,1.80
2022-12-31T02:22:44.050Z,0.97
2022-12-31T02:26:01.543Z,1.13
2022-12-31T02:29:25.176Z,1.77
2022-12-31T02:32:45.685Z,2.10
2022-12-31T02:35:55.127Z,1.23
2022-12-31T02:38:57.956Z,2.67
2022-12-31T02:42:01.026Z,1.50
2022-12-31T02:45:04.317Z,1.30
2022-12-31T02:48:13.212Z,3.90
2022-12-31T02:51:46.333Z,2.10
2022-12-31T02:54:57.109Z,1.70
2022-12-31T02:58:18.124Z,1.10
2022-12-31T03:01:44.251Z,2.87
2022-12-31T03:04:57.526Z,1.37
2022-12-31T03:07:59.460Z,4.00
2022-12-31T03:11:21.277Z,1.00
2022-12-31T03:14:23.122Z,2.43
2022-12-31T03:17:25.529Z,1.83
2022-12-31T03:20:58.007Z,1.80
2022-12-31T03:24:18.962Z,1.50
2022-12-31T03:27:20.876Z,1.50
2022-12-31T03:30:23.993Z,1.87
2022-12-31T03:33:27.015Z,1.63
2022-12-31T03:36:29.073Z,1.50
2022-12-31T03:39:30.973Z,1.33
2022-12-31T03:42:32.959Z,1.70
2022-12-31T03:45:35.032Z,1.40
2022-12-31T03:48:37.478Z,1.77
2022-12-31T03:51:39.339Z,6.80
2022-12-31T03:54:41.286Z,0.83
2022-12-31T03:57:43.674Z,1.43
2022-12-31T04:00:46.236Z,1.37
2022-12-31T04:03:48.123Z,0.70
2022-12-31T04:06:50.054Z,4.93
2022-12-31T04:09:51.971Z,2.07
2022-12-31T04:12:54.051Z,1.17
2022-12-31T04:15:55.932Z,2.63
2022-12-31T04:18:59.316Z,1.53
2022-12-31T04:22:01.336Z,1.23
2022-12-31T04:25:04.110Z,1.93
2022-12-31T04:28:05.991Z,1.37
2022-12-31T04:31:08.020Z,3.07
2022-12-31T04:34:09.967Z,4.20
2022-12-31T04:37:12.373Z,3.37
2022-12-31T04:40:14.408Z,6.17
2022-12-31T04:43:16.509Z,3.37
2022-12-31T04:46:24.272Z,1.90
2022-12-31T04:49:26.404Z,5.40
2022-12-31T04:52:28.251Z,1.60
2022-12-31T04:55:30.160Z,1.37
2022-12-31T04:58:32.575Z,1.83
2022-12-31T05:01:34.729Z,3.37
2022-12-31T05:04:36.827Z,1.67
2022-12-31T05:07:38.817Z,1.17
2022-12-31T05:10:46.249Z,1.73
2022-12-31T05:13:49.473Z,1.20
2022-12-31T05:16:52.407Z,1.97
2022-12-31T05:19:54.482Z,1.40
2022-12-31T05:22:56.598Z,1.30
2022-12-31T05:26:00.049Z,1.00
2022-12-31T05:29:02.025Z,1.40
2022-12-31T05:32:04.400Z,1.50
2022-12-31T05:35:07.631Z,1.97
2022-12-31T05:38:09.702Z,1.50
2022-12-31T05:41:11.977Z,1.07
2022-12-31T05:44:14.379Z,1.33
2022-12-31T05:47:17.320Z,1.00
2022-12-31T05:50:19.236Z,1.10
2022-12-31T05:53:21.113Z,0.63
2022-12-31T05:56:23.188Z,1.43
2022-12-31T05:59:25.342Z,1.30
2022-12-31T06:02:27.348Z,1.90
2022-12-31T06:05:29.235Z,1.67
2022-12-31T06:08:31.360Z,3.63
2022-12-31T06:11:33.177Z,1.73
2022-12-31T06:14:36.270Z,1.67
2022-12-31T06:17:40.546Z,1.63
2022-12-31T06:20:42.590Z,1.47
2022-12-31T06:23:44.545Z,2.77
2022-12-31T06:26:46.492Z,1.33
2022-12-31T06:29:48.883Z,0.80
2022-12-31T06:32:50.866Z,6.27
2022-12-31T06:35:57.483Z,1.07
2022-12-31T06:38:59.480Z,1.03
2022-12-31T06:42:01.509Z,3.10
2022-12-31T06:45:03.999Z,1.07
2022-12-31T06:48:06.511Z,3.53
2022-12-31T06:51:16.955Z,1.53
2022-12-31T06:54:19.062Z,0.90
2022-12-31T06:57:21.443Z,1.10
2022-12-31T07:00:23.642Z,2.27
2022-12-31T07:03:35.107Z,1.97
2022-12-31T07:06:53.761Z,1.10
2022-12-31T07:09:55.694Z,2.30
2022-12-31T07:13:27.472Z,1.53
2022-12-31T07:16:41.692Z,1.87
2022-12-31T07:19:57.517Z,1.03
2022-12-31T07:23:00.911Z,1.80
2022-12-31T07:26:35.413Z,3.67
2022-12-31T07:29:46.141Z,1.60
2022-12-31T07:33:00.468Z,1.93
2022-12-31T07:36:15.117Z,1.67
2022-12-31T07:39:22.726Z,2.30
2022-12-31T07:42:40.183Z,2.33
2022-12-31T07:45:42.441Z,1.57
2022-12-31T07:48:44.476Z,3.67
2022-12-31T07:51:47.126Z,0.97
2022-12-31T07:54:49.385Z,1.77
2022-12-31T07:57:59.177Z,1.60
2022-12-31T08:01:02.302Z,6.17
2022-12-31T08:04:16.193Z,3.87
2022-12-31T08:07:48.373Z,1.93
2022-12-31T08:11:27.813Z,1.50
2022-12-31T08:14:30.957Z,2.50
2022-12-31T08:17:33.003Z,1.10
2022-12-31T08:20:44.747Z,1.57
2022-12-31T08:24:01.840Z,3.63
2022-12-31T08:27:20.979Z,1.00
2022-12-31T08:30:24.115Z,3.27
2022-12-31T08:33:34.746Z,6.67
2022-12-31T08:36:48.174Z,1.93
2022-12-31T08:39:54.451Z,1.97
2022-12-31T08:43:05.503Z,1.77
2022-12-31T08:46:19.263Z,1.33
2022-12-31T08:49:21.606Z,1.43
2022-12-31T08:52:25.999Z,1.93
2022-12-31T08:55:28.260Z,1.87
2022-12-31T08:58:58.136Z,1.87
2022-12-31T09:02:28.466Z,1.53
2022-12-31T09:05:37.467Z,1.13
2022-12-31T09:08:59.050Z,2.67
2022-12-31T09:12:09.416Z,1.77
2022-12-31T09:15:18.523Z,2.70
2022-12-31T09:18:20.742Z,3.43
2022-12-31T09:21:22.728Z,2.83
2022-12-31T09:24:24.978Z,2.30
2022-12-31T09:27:51.102Z,1.93
2022-12-31T09:31:03.766Z,3.30
2022-12-31T09:34:25.578Z,4.50
2022-12-31T09:37:48.239Z,2.73
2022-12-31T09:41:13.639Z,6.20
2022-12-31T09:44:37.401Z,5.43
2022-12-31T09:47:56.845Z,2.80
2022-12-31T09:51:55.906Z,1.97
2022-12-31T09:55:12.822Z,1.30
2022-12-31T09:58:25.320Z,1.33
2022-12-31T10:02:03.585Z,1.60
2022-12-31T10:05:39.207Z,2.17
2022-12-31T10:09:02.490Z,7.50
2022-12-31T10:12:20.191Z,3.57
2022-12-31T10:15:33.793Z,3.90
2022-12-31T10:19:09.604Z,2.00
2022-12-31T10:22:19.758Z,2.50
2022-12-31T10:25:48.017Z,2.57
2022-12-31T10:28:56.332Z,2.90
2022-12-31T10:32:35.355Z,1.27
2022-12-31T10:35:43.508Z,1.83
2022-12-31T10:39:22.192Z,1.30
2022-12-31T10:42:44.311Z,1.67
2022-12-31T10:46:08.430Z,1.03
2022-12-31T10:49:31.818Z,1.00
2022-12-31T10:52:52.328Z,3.20
2022-12-31T10:56:28.545Z,0.90
2022-12-31T10:59:39.714Z,1.43
2022-12-31T11:03:00.684Z,8.77
2022-12-31T11:06:27.101Z,3.97
2022-12-31T11:09:47.546Z,10.70
2022-12-31T11:13:34.625Z,79.07
2022-12-31T11:17:07.421Z,68.00
2022-12-31T11:20:46.509Z,20.80
2022-12-31T11:24:10.425Z,3.40
2022-12-31T11:27:18.446Z,4.47
2022-12-31T11:30:32.522Z,3.53
2022-12-31T11:33:59.344Z,3.40
2022-12-31T11:37:29.076Z,2.77
2022-12-31T11:40:42.448Z,3.57
2022-12-31T11:44:19.018Z,1.97
2022-12-31T11:48:28.593Z,1.80
2022-12-31T11:51:39.582Z,0.83
2022-12-31T11:54:51.348Z,0.80
2022-12-31T11:57:53.659Z,4.93
2022-12-31T12:01:05.648Z,1.57
2022-12-31T12:04:10.418Z,1.00
2022-12-31T12:07:16.363Z,4.77
2022-12-31T12:10:49.253Z,1.57
2022-12-31T12:13:58.889Z,1.43
2022-12-31T12:17:05.182Z,1.67
2022-12-31T12:20:19.471Z,2.30
2022-12-31T12:23:26.696Z,1.80
2022-12-31T12:26:43.508Z,1.20
2022-12-31T12:29:45.556Z,2.60
2022-12-31T12:32:57.780Z,1.87
2022-12-31T12:36:11.031Z,0.83
2022-12-31T12:39:21.941Z,3.63
2022-12-31T12:42:23.796Z,1.03
2022-12-31T12:45:37.243Z,1.90
2022-12-31T12:48:41.435Z,1.70
2022-12-31T12:51:56.358Z,13.57
2022-12-31T12:55:01.019Z,11.07
2022-12-31T12:58:33.310Z,5.90
2022-12-31T13:01:59.478Z,2.80
2022-12-31T13:05:07.425Z,14.23
2022-12-31T13:08:37.168Z,17.87
2022-12-31T13:12:15.714Z,28.33
2022-12-31T13:15:24.068Z,6.07
2022-12-31T13:18:38.292Z,3.63
2022-12-31T13:22:19.255Z,5.80
2022-12-31T13:25:30.157Z,2.73
2022-12-31T13:28:33.320Z,7.97
2022-12-31T13:31:38.513Z,5.20
2022-12-31T13:34:44.499Z,6.70
2022-12-31T13:37:47.905Z,6.70
2022-12-31T13:41:09.588Z,5.03
2022-12-31T13:44:22.617Z,2.20
2022-12-31T13:47:35.985Z,2.40
2022-12-31T13:50:51.548Z,1.30
2022-12-31T13:54:07.183Z,1.20
2022-12-31T13:57:24.383Z,1.87
2022-12-31T14:00:41.216Z,2.13
2022-12-31T14:03:57.788Z,3.13
2022-12-31T14:07:18.280Z,1.53
2022-12-31T14:10:39.641Z,3.37
2022-12-31T14:14:22.799Z,1.87
2022-12-31T14:17:34.384Z,2.30
2022-12-31T14:20:49.321Z,2.63
2022-12-31T14:24:00.412Z,4.10
2022-12-31T14:27:08.621Z,6.13
2022-12-31T14:30:19.519Z,6.00
2022-12-31T14:33:28.425Z,4.53
2022-12-31T14:36:41.250Z,4.30
2022-12-31T14:39:58.038Z,6.20
2022-12-31T14:43:29.380Z,5.87
2022-12-31T14:46:36.965Z,3.97
2022-12-31T14:49:49.333Z,1.77
2022-12-31T14:52:57.276Z,1.80
2022-12-31T14:56:00.240Z,2.00
2022-12-31T14:59:03.042Z,0.97
2022-12-31T15:02:32.277Z,3.93
2022-12-31T15:05:37.977Z,1.27
2022-12-31T15:09:13.894Z,1.70
2022-12-31T15:12:34.191Z,1.97
2022-12-31T15:16:15.152Z,6.27
2022-12-31T15:19:18.687Z,3.30
2022-12-31T15:22:39.196Z,6.50
2022-12-31T15:25:48.462Z,2.93
2022-12-31T15:29:07.806Z,1.10
2022-12-31T15:32:18.989Z,1.63
2022-12-31T15:35:26.940Z,0.90
2022-12-31T15:38:36.532Z,1.30
2022-12-31T15:42:27.287Z,1.70
2022-12-31T15:45:16.875Z,6.67
2022-12-31T15:48:23.371Z,2.27
2022-12-31T15:51:31.340Z,1.20
2022-12-31T15:54:46.615Z,1.87
2022-12-31T15:57:49.913Z,2.37
2022-12-31T16:01:01.545Z,5.33
2022-12-31T16:04:14.157Z,2.70
2022-12-31T16:07:16.677Z,5.57
2022-12-31T16:10:24.986Z,4.80
2022-12-31T16:13:28.177Z,4.07
2022-12-31T16:16:32.647Z,4.57
2022-12-31T16:19:43.039Z,5.10
2022-12-31T16:22:52.529Z,4.47
2022-12-31T16:25:58.717Z,4.53
2022-12-31T16:29:01.257Z,4.33
2022-12-31T16:32:04.028Z,2.50
2022-12-31T16:35:32.658Z,1.50
2022-12-31T16:38:37.363Z,3.30
2022-12-31T16:41:43.816Z,2.17
2022-12-31T16:44:50.498Z,5.53
2022-12-31T16:47:52.490Z,3.07
2022-12-31T16:50:56.566Z,4.93
2022-12-31T16:53:59.927Z,14.03
2022-12-31T16:57:02.269Z,7.67
2022-12-31T17:00:07.149Z,9.40
2022-12-31T17:03:33.343Z,9.50
2022-12-31T17:06:35.202Z,10.47
2022-12-31T17:09:38.198Z,11.37
2022-12-31T17:13:25.632Z,10.60
2022-12-31T17:16:10.105Z,10.60
2022-12-31T17:19:41.304Z,8.93
2022-12-31T17:22:44.369Z,4.97
2022-12-31T17:25:46.329Z,4.57
2022-12-31T17:28:51.301Z,4.77
2022-12-31T17:32:04.873Z,5.47
2022-12-31T17:35:31.414Z,6.50
2022-12-31T17:38:36.252Z,6.60
2022-12-31T17:41:38.416Z,2.67
2022-12-31T17:44:43.994Z,7.90
2022-12-31T17:47:48.496Z,3.47
2022-12-31T17:50:55.190Z,2.50
2022-12-31T17:54:00.203Z,2.83
2022-12-31T17:57:02.117Z,4.63
2022-12-31T18:00:07.816Z,3.37
2022-12-31T18:03:09.771Z,1.77
2022-12-31T18:06:16.631Z,2.47
2022-12-31T18:09:19.134Z,6.83
2022-12-31T18:12:21.349Z,21.20
2022-12-31T18:15:24.738Z,14.20
2022-12-31T18:18:29.440Z,56.17
2022-12-31T18:21:32.771Z,47.07
2022-12-31T18:24:35.236Z,12.20
2022-12-31T18:27:37.057Z,11.37
2022-12-31T18:30:39.516Z,8.87
2022-12-31T18:33:41.475Z,16.80
2022-12-31T18:36:44.057Z,86.93
2022-12-31T18:39:46.596Z,38.50
2022-12-31T18:42:49.015Z,8.13
2022-12-31T18:45:51.650Z,17.00
2022-12-31T18:48:53.590Z,24.47
2022-12-31T18:51:56.085Z,45.47
2022-12-31T18:54:58.544Z,18.00
2022-12-31T18:58:00.375Z,21.57
2022-12-31T19:01:02.509Z,11.17
2022-12-31T19:04:15.101Z,7.00
2022-12-31T19:07:17.031Z,12.13
2022-12-31T19:10:20.424Z,8.27
2022-12-31T19:13:23.504Z,8.97
2022-12-31T19:16:25.440Z,7.83
2022-12-31T19:19:27.425Z,6.17
2022-12-31T19:22:32.067Z,6.80
2022-12-31T19:25:35.613Z,5.63
2022-12-31T19:28:37.440Z,12.10
2022-12-31T19:31:39.388Z,6.97
2022-12-31T19:34:41.322Z,3.30
2022-12-31T19:37:45.151Z,5.80
2022-12-31T19:40:47.576Z,6.67
2022-12-31T19:43:49.557Z,31.80
2022-12-31T19:46:51.361Z,24.63
2022-12-31T19:49:53.373Z,12.20
2022-12-31T19:52:58.056Z,11.67
2022-12-31T19:56:00.366Z,2.20
2022-12-31T19:59:06.084Z,1.80
2022-12-31T20:02:08.239Z,2.40
2022-12-31T20:05:11.225Z,2.03
2022-12-31T20:08:15.077Z,1.73
2022-12-31T20:11:19.744Z,2.03
2022-12-31T20:14:22.213Z,3.70
2022-12-31T20:17:24.231Z,4.30
2022-12-31T20:20:29.461Z,1.93
2022-12-31T20:23:35.023Z,2.30
2022-12-31T20:26:37.349Z,2.70
2022-12-31T20:29:39.646Z,10.23
2022-12-31T20:32:41.578Z,29.20
2022-12-31T20:35:43.550Z,43.13
2022-12-31T20:38:46.286Z,18.07
2022-12-31T20:41:48.369Z,15.97
2022-12-31T20:44:50.214Z,15.27
2022-12-31T20:47:52.451Z,10.43
2022-12-31T20:50:56.140Z,17.13
2022-12-31T20:54:06.850Z,26.00
2022-12-31T20:57:09.497Z,31.63
2022-12-31T21:00:12.724Z,15.90
2022-12-31T21:03:53.608Z,64.33
2022-12-31T21:06:37.256Z,45.20
2022-12-31T21:09:39.191Z,8.00
2022-12-31T21:12:45.164Z,15.00
2022-12-31T21:15:51.636Z,13.67
2022-12-31T21:18:54.473Z,10.97
2022-12-31T21:21:56.397Z,32.77
2022-12-31T21:24:58.895Z,36.37
2022-12-31T21:28:00.892Z,30.73
2022-12-31T21:31:05.328Z,29.50
2022-12-31T21:34:09.635Z,12.10
2022-12-31T21:37:11.845Z,6.23
2022-12-31T21:40:13.874Z,11.83
2022-12-31T21:43:16.269Z,13.57
2022-12-31T21:46:18.172Z,28.93
2022-12-31T21:49:20.341Z,52.20
2022-12-31T21:52:30.671Z,15.20
2022-12-31T21:55:50.941Z,17.10
2022-12-31T21:59:17.267Z,32.53
2022-12-31T22:02:38.646Z,30.40
2022-12-31T22:06:00.371Z,31.57
2022-12-31T22:09:02.703Z,40.67
2022-12-31T22:12:04.970Z,105.03
2022-12-31T22:15:15.274Z,89.00
2022-12-31T22:18:18.699Z,27.23
2022-12-31T22:21:23.594Z,17.97
2022-12-31T22:24:26.281Z,5.40
2022-12-31T22:27:29.924Z,7.03
2022-12-31T22:30:33.236Z,10.80
2022-12-31T22:33:35.226Z,6.70
2022-12-31T22:36:37.403Z,7.83
2022-12-31T22:39:43.733Z,4.00
2022-12-31T22:42:46.869Z,4.07
2022-12-31T22:45:48.798Z,5.33
2022-12-31T22:48:51.950Z,3.73
2022-12-31T22:51:56.582Z,24.90
2022-12-31T22:55:01.424Z,18.70
2022-12-31T22:58:03.682Z,21.17
2022-12-31T23:01:16.794Z,23.60
2022-12-31T23:04:18.780Z,100.63
2022-12-31T23:07:20.807Z,109.07
2022-12-31T23:10:41.486Z,236.80
2022-12-31T23:14:02.247Z,147.27
2022-12-31T23:17:29.819Z,55.63
2022-12-31T23:20:52.069Z,33.90
2022-12-31T23:23:54.223Z,14.90
2022-12-31T23:26:57.849Z,5.37
2022-12-31T23:29:59.678Z,3.83
2022-12-31T23:33:03.728Z,4.33
2022-12-31T23:36:07.523Z,4.40
2022-12-31T23:39:09.602Z,3.93
2022-12-31T23:42:11.444Z,3.50
2022-12-31T23:45:13.776Z,4.07
2022-12-31T23:48:15.615Z,11.43
2022-12-31T23:51:17.735Z,11.20
2022-12-31T23:54:19.564Z,9.17
2022-12-31T23:57:23.310Z,8.37
